Statewide Weather Sensors

Route Weather Station Name Milepost Date / Time Surface Status Surface Temp Precip Intensity Wind Avg Wind Gust Dir Dewpoint Humidity Air Temp Visibility
I 25 Wyo Hill 3.52 Jun 26, 2019 07:52 am     None None 6 mph 7 mph SW 46.4°F 48% 66.2°F > 1/2 mi
I 25 Whitaker 30.2 Jun 26, 2019 07:53 am Dry 72.3°F None None 11 mph 14 mph SW 53.6°F 56% 69.8°F > 1/2 mi
I 25 Bear Creek 46.77 Jun 26, 2019 07:52 am Dry 71.4°F None None 6 mph 8 mph W 44.6°F 46% 66.2°F > 1/2 mi
I 25 Bordeaux 70.8 Jun 26, 2019 07:52 am Dry 76.5°F None None 9 mph 16 mph NW 42.8°F 43% 66.2°F > 1/2 mi
I 25 Coleman 98.7 Jun 26, 2019 07:52 am N/A   None   2 mph 5 mph S 48.2°F 53% 64.4°F  
I 25 Platte/Converse County Line 119.9 Jun 26, 2019 07:52 am Dry 68.7°F None None 9 mph 9 mph NW 33.8°F 71% 44.6°F > 1/2 mi
I 25 Deer Creek 164.2 Jun 26, 2019 07:52 am Dry 66.2°F None None 7 mph 10 mph W 48.2°F 80% 55.4°F > 1/2 mi
I 25 F Street Hill 189.51 Jun 26, 2019 07:52 am Dry 62.4°F None None 5 mph 7 mph W 48.2°F 82% 53.6°F > 1/2 mi
I 25 Twenty Mile Hill 207.2 Jun 26, 2019 07:52 am N/A   None None 6 mph 7 mph N 50.0°F 85% 53.6°F > 1/2 mi
I 25 I-25 Divide 267.3 Jun 26, 2019 07:52 am N/A   None None 7 mph 9 mph NW 46.4°F 56% 62.6°F > 1/2 mi
I 80 Evanston POE .06 Jun 26, 2019 07:52 am Dry 51.1°F None   0 mph 2 mph N 33.8°F 57% 48.2°F > 1/2 mi
I 80 Evanston 4.2 Jun 26, 2019 07:52 am Dry 63.1°F None None 2 mph 4 mph NE     55.4°F > 1/2 mi
I 80 Bear River Drive 6.94 Jun 26, 2019 07:52 am Dry 52.3°F None   0 mph 3 mph E 32.0°F 37% 57.2°F > 1/2 mi
I 80 Painter 10.16 Jun 26, 2019 07:52 am Dry 63.1°F None   3 mph 5 mph W        
I 80 First Divide 13.86 Jun 26, 2019 07:52 am N/A   None   8 mph 12 mph SW 28.4°F 30% 60.8°F  
I 80 US 189 Interchange 17.66 Jun 26, 2019 07:52 am Dry 65.1°F None None 2 mph 4 mph NE 35.6°F 42% 57.2°F > 1/2 mi
I 80 Coal Road 20.95 Jun 26, 2019 07:52 am Dry 70.5°F None None 14 mph 17 mph S 24.8°F 22% 62.6°F > 1/2 mi
I 80 Leroy 23.35 Jun 26, 2019 07:52 am Dry 63.1°F None None 1 mph 2 mph S 35.6°F 48% 53.6°F > 1/2 mi
I 80 French 27.6 Jun 26, 2019 07:52 am Dry 66.2°F None None 5 mph 9 mph SW 30.2°F 32% 59.0°F > 1/2 mi
I 80 Church Butte 52.65 Jun 26, 2019 07:52 am N/A   None None 1 mph 2 mph SE 35.6°F 40% 60.8°F > 1/2 mi
I 80 Peru Hill 82.31 Jun 26, 2019 07:52 am N/A   None   2 mph 4 mph S 37.4°F 37% 62.6°F  
I 80 Green River Tunnel 90.5 Jun 26, 2019 07:52 am Dry 68.2°F None   1 mph 2 mph NE 37.4°F 44% 59.0°F  
I 80 Rock Springs West 97.9 Jun 26, 2019 07:52 am Dry 66.0°F None None 1 mph 3 mph W 39.2°F 52% 57.2°F > 1/2 mi
I 80 Baxter Road 111.5 Jun 26, 2019 07:52 am         0 mph 6 mph   39.2°F 56% 53.6°F  
I 80 Mile Marker 124.5 124.5 Jun 26, 2019 07:52 am Dry 67.3°F None None 4 mph 7 mph E 41.0°F 61% 55.4°F > 1/2 mi
I 80 Point of Rocks 129.8 Jun 26, 2019 07:52 am Dry 66.2°F None None 4 mph 7 mph E 42.8°F 69% 51.8°F > 1/2 mi
I 80 Bitter Creek 141.83 Jun 26, 2019 07:52 am Dry 66.4°F None   6 mph 7 mph SE 33.8°F 36% 60.8°F  
I 80 Tipton 156.72 Jun 26, 2019 07:52 am Dry 64.2°F None None 2 mph 5 mph SW 41.0°F 53% 59.0°F > 1/2 mi
I 80 Continental Divide 184.3 Jun 26, 2019 07:52 am N/A   None   6 mph 8 mph S 39.2°F 49% 59.0°F  
I 80 Sinclair 221.7 Jun 26, 2019 07:52 am N/A   None None 2 mph 3 mph NW 39.2°F 60% 53.6°F > 1/2 mi
I 80 Walcott Junction 234.66 Jun 26, 2019 07:52 am N/A   None None 3 mph 5 mph NW 41.0°F 56% 57.2°F > 1/2 mi
I 80 Dana Ridge 244.8 Jun 26, 2019 07:52 am Dry 68.0°F None None 4 mph 9 mph SW 42.8°F 60% 57.2°F > 1/2 mi
I 80 Mile Marker 249.1 249.1 Jun 26, 2019 07:52 am N/A   None None 6 mph 9 mph N   100%   > 1/2 mi
I 80 Halleck Ridge 252.16 Jun 26, 2019 07:52 am N/A   None None 6 mph 11 mph N       > 1/2 mi
I 80 Elk Mountain 256.17 Jun 26, 2019 07:52 am Dry 63.7°F None None 3 mph 6 mph N 41.0°F 50% 59.0°F > 1/2 mi
I 80 County Road 402 262 Jun 26, 2019 07:52 am Dry 64.8°F None None 14 mph 18 mph S 33.8°F 38% 59.0°F > 1/2 mi
I 80 Wagonhound 266.58 Jun 26, 2019 07:52 am Dry 63.3°F None None 12 mph 18 mph S 33.8°F 34% 62.6°F > 1/2 mi
I 80 Foote Creek 269.5 Jun 26, 2019 07:52 am Dry 65.8°F None None 15 mph 16 mph SW 30.2°F 28% 64.4°F > 1/2 mi
I 80 Arlington 271.8 Jun 26, 2019 07:52 am Dry 66.6°F None None 10 mph 13 mph W 37.4°F 40% 60.8°F > 1/2 mi
I 80 Arlington East 273.85 Jun 26, 2019 07:52 am Dry 69.3°F None None 11 mph 15 mph SW 26.6°F 24% 66.2°F > 1/2 mi
I 80 Cooper Cove 279.36 Jun 26, 2019 07:52 am Dry 65.5°F None None 7 mph 11 mph SE 35.6°F 32% 66.2°F > 1/2 mi
I 80 Strouss Hill 283.75 Jun 26, 2019 07:52 am Dry 70.2°F None None 8 mph 10 mph W 32.0°F 30% 64.4°F > 1/2 mi
I 80 Quealy Dome 289.5 Jun 26, 2019 07:52 am Dry 68.4°F None None 14 mph 17 mph S 37.4°F 38% 62.6°F > 1/2 mi
I 80 Herrick Lane 297.66 Jun 26, 2019 07:52 am Wet 60.8°F None   1 mph 3 mph SW 44.6°F   59.0°F > 1/2 mi
I 80 Summit East 325.8 Jun 26, 2019 07:52 am Dry 66.7°F None None 3 mph 4 mph S 35.6°F 41% 59.0°F > 1/2 mi
I 80 Vedauwoo 329.4 Jun 26, 2019 07:52 am Dry 68.9°F None None 9 mph 11 mph S 33.8°F 32% 62.6°F  
I 80 Lone Tree 333.32 Jun 26, 2019 07:52 am N/A   None None 1 mph 2 mph S 39.2°F 41% 62.6°F > 1/2 mi
I 80 Buford East 336.1 Jun 26, 2019 07:52 am N/A   None None 3 mph 6 mph NW 39.2°F 41% 62.6°F > 1/2 mi
I 80 Remount Road 340.5 Jun 26, 2019 07:52 am N/A   None None 5 mph 7 mph SW 42.8°F 44% 64.4°F > 1/2 mi
I 80 Otto 347.69 Jun 26, 2019 07:52 am N/A   None None 7 mph 9 mph S 42.8°F 43% 66.2°F > 1/2 mi
I 80 MP 353 353 Jun 26, 2019 07:52 am Dry 73.2°F None None 6 mph 9 mph S 50.0°F 56% 66.2°F > 1/2 mi
I 80 Cheyenne East 373 Jun 26, 2019 07:52 am Dry 75.4°F None None 7 mph 9 mph W 46.4°F 47% 66.2°F > 1/2 mi
I 90 Montana State Line .1 Jun 26, 2019 07:52 am Chemically Wet 72.7°F None None 8 mph 11 mph W 50.0°F 74% 57.2°F > 1/2 mi
I 90 Pompey Creek 35.3 Jun 26, 2019 07:52 am N/A   None None 4 mph 5 mph W 37.4°F 70% 48.2°F > 1/2 mi
I 90 Piney Creek Interchange 44.7 Jun 26, 2019 07:52 am Dry 63.0°F None None 4 mph 5 mph SE 48.2°F 59% 62.6°F > 1/2 mi
I 90 Kearny Divide 45.33 Jun 26, 2019 07:52 am Dry   None None 4 mph 6 mph NW 33.8°F 64% 46.4°F > 1/2 mi
I 90 Indian Creek Road 83.3 Jun 26, 2019 07:52 am Dry 70.7°F None None 3 mph 4 mph E 46.4°F 69% 57.2°F > 1/2 mi
I 90 Dead Horse 91.5 Jun 26, 2019 07:52 am Dry 70.0°F None None 4 mph 6 mph SE 53.6°F 90% 57.2°F > 1/2 mi
I 90 Mile Marker 108 108 Jun 26, 2019 07:52 am N/A   None None 2 mph 5 mph E 51.8°F 86% 55.4°F > 1/2 mi
I 90 Inyan Kara 170.5 Jun 26, 2019 07:52 am Dry 66.7°F None   9 mph 12 mph NE 51.8°F 81% 57.2°F  
I 90 Beulah 205.9 Jun 26, 2019 07:52 am Dry 62.4°F None None 9 mph 14 mph NW 57.2°F 85% 62.6°F > 1/2 mi
US 14 Ucross 27.83 Jun 26, 2019 07:52 am Dry 62.4°F None None 6 mph 9 mph N 50.0°F 70% 59.0°F N/A
US 14 Granite Pass 38.95 Jun 26, 2019 07:52 am N/A   None None 3 mph 3 mph NE 33.8°F 49% 53.6°F > 1/2 mi
US 16 Big Horn County Line 44.01 Jun 26, 2019 07:52 am N/A   None                
US 191 Farson 40.45 Jun 26, 2019 07:52 am Ice Warning 29.7°F None None 2 mph 4 mph SW 37.4°F 49% 55.4°F > 1/2 mi
US 191 Rim US 191 127 Jun 26, 2019 07:52 am Dry 61.7°F None None 2 mph 3 mph S 35.6°F 55% 51.8°F  
US 20 Natrona 30 Jun 26, 2019 07:52 am Dry 71.2°F None None 2 mph 4 mph N 44.6°F 61% 59.0°F > 1/2 mi
US 20 Hiland 57.4 Jun 26, 2019 07:52 am Dry 67.5°F None None 12 mph 16 mph NE 46.4°F 67% 57.2°F > 1/2 mi
US 26 Wind River Lake 26.05 Jun 26, 2019 07:52 am Dry 53.2°F None None 4 mph 7 mph S 32.0°F 56% 46.4°F > 1/2 mi
US 287 Pumpkin Vine 420.4 Jun 26, 2019 07:52 am N/A   None None 3 mph 6 mph SE 37.4°F 40% 60.8°F > 1/2 mi
US 30 Sage Junction 34 Jun 26, 2019 07:52 am N/A   None None 2 mph 2 mph N 39.2°F 61% 53.6°F  
US 30 Nugget Canyon 39.7 Jun 26, 2019 07:52 am N/A   None   2 mph 5 mph SE 35.6°F 65% 48.2°F  
US 85 Gun Barrel 46.8 Jun 26, 2019 07:52 am Dry 74.3°F None None 7 mph 11 mph W 48.2°F 50% 66.2°F  
WY 120 Meeteetse 61.5 Jun 26, 2019 07:52 am Dry 63.5°F None   6 mph 7 mph S 48.2°F 72% 57.2°F  
WY 210 Wildcat Trail 21.52 Jun 26, 2019 07:52 am Dry 69.1°F None None 8 mph 11 mph S 39.2°F 41% 64.4°F > 1/2 mi
WY 210 Hynds Lodge Road 24.55 Jun 26, 2019 07:52 am Dry 70.5°F None None 4 mph 7 mph SW 39.2°F 41% 62.6°F > 1/2 mi
WY 22 Teton Pass 11.2 Jun 26, 2019 07:52 am Dry 63.7°F None None 4 mph 7 mph NE 39.2°F 49% 59.0°F > 1/2 mi
WY 220 Pathfinder Hill 80.1 Jun 26, 2019 07:52 am Dry 65.5°F None None 11 mph 14 mph E 46.4°F 70% 55.4°F > 1/2 mi
WY 230 Skyline 230 113.2 Jun 26, 2019 07:52 am Dry 55.6°F None None 14 mph 19 mph E 41.0°F 78% 48.2°F > 1/2 mi
WY 258 Outer Drive 13.77 Jun 26, 2019 07:52 am Dry 63.3°F None None 3 mph 7 mph SW 51.8°F 97% 53.6°F > 1/2 mi
WY 28 New South Pass 41.4 Jun 26, 2019 07:52 am Dry 65.1°F None None 4 mph 5 mph NE 32.0°F 39% 57.2°F > 1/2 mi
WY 28 Red Canyon 59.5 Feb 14, 2019 08:06 am                      
WY 296 Chief Joseph 32.96 Jun 26, 2019 07:52 am N/A   None                
WY 372 Shute Creek 36 Jun 13, 2019 02:02 pm                      
WY 387 Pine Tree Junction 131.79 Jun 26, 2019 07:52 am Dry 65.8°F None   9 mph 12 mph NW 51.8°F 90% 55.4°F  
WY 487 Shirley Rim 37 Jun 26, 2019 07:53 am Dry 62.1°F None None 5 mph 8 mph E 42.8°F 61% 55.4°F > 1/2 mi
WY 59 Belle Fourche 87 Jun 26, 2019 07:52 am Dry 65.3°F None   9 mph 11 mph N 55.4°F 92% 57.2°F  
WY 789 Beaver Rim 48.1 Jun 26, 2019 07:52 am N/A   None None 6 mph 8 mph NW 48.2°F 65% 60.8°F > 1/2 mi

Contact Us Copyright 2019 Disclaimer Privacy Policy Media